Flight Track Log - Related Links

Times and Time Zones

All times are in EDT time to prevent confusion due to time zone crossing. See the N787FT flight status page for this flight to view local times or setup timezone preferences in your user account.

Time Position Orientation Groundspeed Altitude Reporting Facility
EDT Latitude Longitude Course Direction KTS MPH feet Rate Location/Type
Wed 01:18:00 PM 34.0954 -117.2349 North  Level Estimated
Wed 01:19:00 PM 34.0954 -117.2349 40° Northeast  Level Estimated
Wed 01:20:00 PM 34.0954 -117.2349 40° Northeast  Level Estimated
Wed 01:21:00 PM 30.2076 -120.8268 206° Southwest 130 150  Level FlightAware Transoceanic
Wed 01:22:00 PM 30.1750 -120.8452 206° Southwest 130 150 12,404 Level FlightAware Transoceanic
Wed 01:23:00 PM 30.1424 -120.8636 206° Southwest 130 150 17,432 Level FlightAware Transoceanic
Wed 01:24:00 PM 30.1098 -120.8820 206° Southwest 130 150 29,318 Level FlightAware Transoceanic
Wed 01:24:28 PM 29.0000 -121.5000 210° Southwest 49 56 43,000 7,167 Climbing Oakland Oceanic (ODAPS)
Wed 01:25:00 PM 30.0772 -120.9004 206° Southwest 130 150  Descending FlightAware Transoceanic
Wed 01:26:00 PM 30.0446 -120.9187 206° Southwest 130 150 8,600 Level FlightAware Transoceanic
Wed 01:27:00 PM 30.0120 -120.9371 206° Southwest 130 150 10,750 Level FlightAware Transoceanic
Wed 01:28:00 PM 29.9794 -120.9554 206° Southwest 130 150 14,333 Level FlightAware Transoceanic
Wed 01:29:00 PM 29.9468 -120.9737 206° Southwest 130 150 21,500 Level FlightAware Transoceanic
Wed 01:30:00 PM 24.7781 -124.1574 209° Southwest 49 56 43,000 21,500 Climbing FlightAware Transoceanic
Wed 01:31:00 PM 24.4950 -124.3279 209° Southwest 49 56 43,000  Level FlightAware Transoceanic
Wed 01:32:00 PM 24.2116 -124.4975 209° Southwest 49 56 43,000  Level FlightAware Transoceanic
Wed 01:33:00 PM 23.9281 -124.6664 209° Southwest 49 56 43,000  Level FlightAware Transoceanic
Wed 01:34:00 PM 23.6444 -124.8345 208° Southwest 49 56 43,000  Level FlightAware Transoceanic
Wed 01:35:00 PM 23.3605 -125.0020 208° Southwest 49 56 43,000  Level FlightAware Transoceanic
Wed 01:36:00 PM 23.0765 -125.1687 208° Southwest 49 56 43,000  Level FlightAware Transoceanic
Wed 01:37:00 PM 22.7922 -125.3347 208° Southwest 49 56 43,000  Level FlightAware Transoceanic
Wed 01:38:00 PM 22.5078 -125.5000 208° Southwest 49 56 43,000  Level FlightAware Transoceanic
Wed 01:39:00 PM 22.2232 -125.6647 208° Southwest 49 56 43,000  Level FlightAware Transoceanic
Wed 01:40:00 PM 21.9385 -125.8286 208° Southwest 49 56 43,000  Level FlightAware Transoceanic
Wed 01:41:00 PM 21.6536 -125.9920 208° Southwest 49 56 43,000  Level FlightAware Transoceanic
Wed 01:42:00 PM 21.3685 -126.1546 208° Southwest 49 56 43,000  Level FlightAware Transoceanic
Wed 01:43:00 PM 21.0833 -126.3167 23° Northeast 49 56 43,000  Level FlightAware Transoceanic
Wed 01:44:00 PM 21.2147 -126.2554 24° Northeast 49 56 43,000  Level FlightAware Transoceanic
Wed 01:45:00 PM 21.3461 -126.1941 24° Northeast 49 56 43,000  Level FlightAware Transoceanic
Wed 01:46:00 PM 21.4775 -126.1326 24° Northeast 49 56 43,000  Level FlightAware Transoceanic
Wed 01:47:00 PM 21.6088 -126.0710 24° Northeast 49 56 43,000  Level FlightAware Transoceanic
Wed 01:48:00 PM 21.7401 -126.0093 24° Northeast 49 56 43,000  Level FlightAware Transoceanic
Wed 01:49:00 PM 21.8714 -125.9475 24° Northeast 49 56 43,000  Level FlightAware Transoceanic
Wed 01:50:00 PM 22.0027 -125.8856 24° Northeast 49 56 43,000  Level FlightAware Transoceanic
Wed 01:51:00 PM 22.1339 -125.8236 24° Northeast 49 56 43,000  Level FlightAware Transoceanic
Wed 01:52:00 PM 22.2652 -125.7615 24° Northeast 49 56 43,000  Level FlightAware Transoceanic
Wed 01:53:00 PM 22.3964 -125.6992 24° Northeast 49 56 43,000  Level FlightAware Transoceanic
Wed 01:54:00 PM 22.5275 -125.6368 24° Northeast 49 56 43,000  Level FlightAware Transoceanic
Wed 01:55:00 PM 22.6587 -125.5743 24° Northeast 49 56 43,000  Level FlightAware Transoceanic
Wed 01:56:00 PM 22.7898 -125.5117 24° Northeast 49 56 43,000  Level FlightAware Transoceanic
Wed 01:57:00 PM 22.9209 -125.4490 24° Northeast 49 56 43,000  Level FlightAware Transoceanic
Wed 01:58:00 PM 23.0520 -125.3861 24° Northeast 49 56 43,000  Level FlightAware Transoceanic
Wed 01:59:00 PM 23.1830 -125.3231 24° Northeast 49 56 43,000  Level FlightAware Transoceanic
Wed 02:00:00 PM 23.3141 -125.2600 24° Northeast 49 56 43,000  Level FlightAware Transoceanic
Wed 02:01:00 PM 23.4450 -125.1968 24° Northeast 49 56 43,000  Level FlightAware Transoceanic
Wed 02:02:00 PM 23.5760 -125.1334 24° Northeast 49 56 43,000  Level FlightAware Transoceanic
Wed 02:03:00 PM 23.7070 -125.0699 24° Northeast 49 56 43,000  Level FlightAware Transoceanic
Wed 02:04:00 PM 23.8379 -125.0063 24° Northeast 49 56 43,000  Level FlightAware Transoceanic
Wed 02:05:00 PM 23.9688 -124.9426 24° Northeast 49 56 43,000  Level FlightAware Transoceanic
Wed 02:06:00 PM 24.0997 -124.8787 24° Northeast 49 56 43,000  Level FlightAware Transoceanic
Wed 02:07:00 PM 24.2305 -124.8147 24° Northeast 49 56 43,000  Level FlightAware Transoceanic
Wed 02:08:00 PM 24.3613 -124.7506 24° Northeast 49 56 43,000  Level FlightAware Transoceanic
Wed 02:09:00 PM 24.4921 -124.6863 24° Northeast 49 56 43,000  Level FlightAware Transoceanic
Wed 02:10:00 PM 24.6229 -124.6219 24° Northeast 49 56 43,000  Level FlightAware Transoceanic
Wed 02:11:00 PM 24.7536 -124.5574 24° Northeast 49 56 43,000  Level FlightAware Transoceanic
Wed 02:12:00 PM 24.8843 -124.4927 24° Northeast 49 56 43,000  Level FlightAware Transoceanic
Wed 02:13:00 PM 25.0150 -124.4279 24° Northeast 49 56 43,000  Level FlightAware Transoceanic
Wed 02:14:00 PM 25.1457 -124.3630 24° Northeast 49 56 43,000  Level FlightAware Transoceanic
Wed 02:15:00 PM 25.2763 -124.2979 24° Northeast 49 56 43,000  Level FlightAware Transoceanic
Wed 02:16:00 PM 25.4069 -124.2327 24° Northeast 49 56 43,000  Level FlightAware Transoceanic
Wed 02:17:00 PM 25.5375 -124.1673 24° Northeast 49 56 43,000  Level FlightAware Transoceanic
Wed 02:18:00 PM 25.6680 -124.1018 24° Northeast 49 56 43,000  Level FlightAware Transoceanic
Wed 02:19:00 PM 25.7985 -124.0362 24° Northeast 49 56 43,000  Level FlightAware Transoceanic
Wed 02:20:00 PM 25.9290 -123.9704 24° Northeast 49 56 43,000  Level FlightAware Transoceanic
Wed 02:21:00 PM 26.0594 -123.9044 24° Northeast 49 56 43,000  Level FlightAware Transoceanic
Wed 02:22:00 PM 26.1898 -123.8383 24° Northeast 49 56 43,000  Level FlightAware Transoceanic
Wed 02:23:00 PM 26.3202 -123.7721 25° Northeast 49 56 43,000  Level FlightAware Transoceanic
Wed 02:24:00 PM 26.4506 -123.7057 25° Northeast 49 56 43,000  Level FlightAware Transoceanic
Wed 02:24:40 PM 29.0000 -121.5000 210° Southwest 49 56 43,000  Level Oakland Oceanic (ODAPS)
Wed 02:25:00 PM 26.5809 -123.6392 25° Northeast 49 56 43,000  Level FlightAware Transoceanic
Wed 02:26:00 PM 26.7112 -123.5725 25° Northeast 49 56 43,000  Level FlightAware Transoceanic
Wed 02:27:00 PM 26.8415 -123.5057 25° Northeast 49 56 43,000  Level FlightAware Transoceanic
Wed 02:28:00 PM 26.9717 -123.4387 25° Northeast 49 56 43,000  Level FlightAware Transoceanic
Wed 02:29:00 PM 27.1019 -123.3715 25° Northeast 49 56 43,000  Level FlightAware Transoceanic
Wed 02:30:00 PM 24.6208 -124.2522 209° Southwest 49 56 43,000  Level FlightAware Transoceanic
Wed 02:31:00 PM 24.5621 -124.2875 209° Southwest 49 56 43,000  Level FlightAware Transoceanic
Wed 02:32:00 PM 24.5034 -124.3228 209° Southwest 49 56 43,000  Level FlightAware Transoceanic
Wed 02:33:00 PM 24.4446 -124.3581 209° Southwest 49 56 43,000  Level FlightAware Transoceanic
Wed 02:34:00 PM 24.3859 -124.3933 209° Southwest 49 56 43,000  Level FlightAware Transoceanic
Wed 02:35:00 PM 24.3271 -124.4285 209° Southwest 49 56 43,000  Level FlightAware Transoceanic
Wed 02:36:00 PM 24.2683 -124.4636 209° Southwest 49 56 43,000  Level FlightAware Transoceanic
Wed 02:37:00 PM 24.2095 -124.4987 209° Southwest 49 56 43,000  Level FlightAware Transoceanic
Wed 02:38:00 PM 24.1507 -124.5338 209° Southwest 49 56 43,000  Level FlightAware Transoceanic
Wed 02:39:00 PM 24.0920 -124.5689 209° Southwest 49 56 43,000  Level FlightAware Transoceanic
Wed 02:40:00 PM 24.0331 -124.6039 209° Southwest 49 56 43,000  Level FlightAware Transoceanic
Wed 02:41:00 PM 23.9743 -124.6389 209° Southwest 49 56 43,000  Level FlightAware Transoceanic
Wed 02:42:00 PM 23.9155 -124.6739 209° Southwest 49 56 43,000  Level FlightAware Transoceanic
Wed 02:43:00 PM 23.8567 -124.7088 208° Southwest 49 56 43,000  Level FlightAware Transoceanic
Wed 02:44:00 PM 23.7978 -124.7437 208° Southwest 49 56 43,000  Level FlightAware Transoceanic
Wed 02:45:00 PM 23.7390 -124.7786 208° Southwest 49 56 43,000  Level FlightAware Transoceanic
Wed 02:46:00 PM 23.6801 -124.8134 208° Southwest 49 56 43,000  Level FlightAware Transoceanic
Wed 02:47:00 PM 23.6213 -124.8482 208° Southwest 49 56 43,000  Level FlightAware Transoceanic
Wed 02:48:00 PM 23.5624 -124.8830 208° Southwest 49 56 43,000 -25,281 Level FlightAware Transoceanic
Wed 02:48:29 PM 29.0000 -121.5000 210° Southwest 49 56 5,500  Descending Oakland Oceanic (ODAPS)
Wed 02:49:00 PM 23.5035 -124.9177 208° Southwest 49 56 43,000 24,725 Climbing FlightAware Transoceanic
Wed 02:50:00 PM 23.4447 -124.9524 208° Southwest 49 56 43,000  Level FlightAware Transoceanic
Wed 02:51:00 PM 23.3858 -124.9871 208° Southwest 49 56 43,000  Level FlightAware Transoceanic
Wed 02:52:00 PM 23.3269 -125.0218 208° Southwest 49 56 43,000  Level FlightAware Transoceanic
Wed 02:53:00 PM 23.2680 -125.0564 208° Southwest 49 56 43,000 -18,750 Level FlightAware Transoceanic
Wed 02:54:00 PM 22.7422 -125.3639 208° Southwest 49 56 5,500 -18,750 Descending FlightAware Transoceanic
Wed 02:55:00 PM 22.6785 -125.4009 208° Southwest 49 56 5,500  Level FlightAware Transoceanic
Wed 02:56:00 PM 22.6148 -125.4379 208° Southwest 49 56 5,500  Level FlightAware Transoceanic
Wed 02:57:00 PM 22.5511 -125.4749 208° Southwest 49 56 5,500  Level FlightAware Transoceanic
Wed 02:58:00 PM 22.4874 -125.5119 208° Southwest 49 56 5,500  Level FlightAware Transoceanic
Wed 02:59:00 PM 22.4236 -125.5488 208° Southwest 49 56 5,500  Level FlightAware Transoceanic
Wed 03:00:00 PM 22.3599 -125.5857 208° Southwest 49 56 5,500  Level FlightAware Transoceanic
Wed 03:01:00 PM 22.2961 -125.6226 208° Southwest 49 56 5,500  Level FlightAware Transoceanic
Wed 03:02:00 PM 22.2324 -125.6594 208° Southwest 49 56 5,500  Level FlightAware Transoceanic
Wed 03:03:00 PM 22.1686 -125.6962 208° Southwest 49 56 5,500  Level FlightAware Transoceanic
Wed 03:04:00 PM 22.1048 -125.7329 208° Southwest 49 56 5,500  Level FlightAware Transoceanic
Wed 03:05:00 PM 22.0410 -125.7697 208° Southwest 49 56 5,500  Level FlightAware Transoceanic
Wed 03:06:00 PM 21.9772 -125.8064 208° Southwest 49 56 5,500  Level FlightAware Transoceanic
Wed 03:07:00 PM 21.9135 -125.8430 208° Southwest 49 56 5,500  Level FlightAware Transoceanic
Wed 03:08:00 PM 21.8496 -125.8797 208° Southwest 49 56 5,500  Level FlightAware Transoceanic
Wed 03:09:00 PM 21.7858 -125.9163 208° Southwest 49 56 5,500  Level FlightAware Transoceanic
Wed 03:10:00 PM 21.7220 -125.9528 208° Southwest 49 56 5,500  Level FlightAware Transoceanic
Wed 03:11:00 PM 21.6582 -125.9893 208° Southwest 49 56 5,500  Level FlightAware Transoceanic
Wed 03:12:00 PM 21.5943 -126.0258 208° Southwest 49 56 5,500  Level FlightAware Transoceanic
Wed 03:13:00 PM 21.5305 -126.0623 208° Southwest 49 56 5,500  Level FlightAware Transoceanic
Wed 03:14:00 PM 21.4666 -126.0987 208° Southwest 49 56 5,500  Level FlightAware Transoceanic
Wed 03:15:00 PM 21.4028 -126.1351 208° Southwest 49 56 5,500  Level FlightAware Transoceanic
Wed 03:16:00 PM 21.3389 -126.1715 208° Southwest 49 56 5,500  Level FlightAware Transoceanic
Wed 03:17:00 PM 21.2750 -126.2078 208° Southwest 49 56 5,500  Level FlightAware Transoceanic
Wed 03:18:00 PM 21.2111 -126.2441 208° Southwest 49 56 5,500  Level FlightAware Transoceanic
Wed 03:19:00 PM 21.1472 -126.2804 208° Southwest 49 56 5,500  Level FlightAware Transoceanic
Wed 03:20:00 PM 21.0833 -126.3167 23° Northeast 49 56 5,500  Level FlightAware Transoceanic
Wed 03:21:00 PM 21.2147 -126.2554 24° Northeast 49 56 5,500  Level FlightAware Transoceanic
Wed 03:22:00 PM 21.3461 -126.1941 24° Northeast 49 56 5,500  Level FlightAware Transoceanic
Wed 03:23:00 PM 21.4775 -126.1326 24° Northeast 49 56 5,500  Level FlightAware Transoceanic
Wed 03:24:00 PM 21.6088 -126.0710 24° Northeast 49 56 5,500  Level FlightAware Transoceanic
Wed 03:25:00 PM 21.7401 -126.0093 24° Northeast 49 56 5,500  Level FlightAware Transoceanic
Wed 03:26:00 PM 21.8714 -125.9475 24° Northeast 49 56 5,500  Level FlightAware Transoceanic
Wed 03:27:00 PM 22.0027 -125.8856 24° Northeast 49 56 5,500  Level FlightAware Transoceanic
Wed 03:28:00 PM 22.1339 -125.8236 24° Northeast 49 56 5,500  Level FlightAware Transoceanic
Wed 03:29:00 PM 22.2652 -125.7615 24° Northeast 49 56 5,500  Level FlightAware Transoceanic
Wed 03:30:00 PM 22.3964 -125.6992 24° Northeast 49 56 5,500  Level FlightAware Transoceanic
Wed 03:31:00 PM 22.5275 -125.6368 24° Northeast 49 56 5,500  Level FlightAware Transoceanic
Wed 03:32:00 PM 22.6587 -125.5743 24° Northeast 49 56 5,500  Level FlightAware Transoceanic
Wed 03:33:00 PM 22.7898 -125.5117 24° Northeast 49 56 5,500  Level FlightAware Transoceanic
Wed 03:34:00 PM 22.9209 -125.4490 24° Northeast 49 56 5,500  Level FlightAware Transoceanic
Wed 03:35:00 PM 23.0520 -125.3861 24° Northeast 49 56 5,500  Level FlightAware Transoceanic
Wed 03:36:00 PM 23.1830 -125.3231 24° Northeast 49 56 5,500  Level FlightAware Transoceanic
Wed 03:37:00 PM 23.3141 -125.2600 24° Northeast 49 56 5,500  Level FlightAware Transoceanic
Wed 03:38:00 PM 23.4450 -125.1968 24° Northeast 49 56 5,500  Level FlightAware Transoceanic
Wed 03:39:00 PM 23.5760 -125.1334 24° Northeast 49 56 5,500  Level FlightAware Transoceanic
Wed 03:40:00 PM 23.7070 -125.0699 24° Northeast 49 56 5,500  Level FlightAware Transoceanic
Wed 03:41:00 PM 23.8379 -125.0063 24° Northeast 49 56 5,500  Level FlightAware Transoceanic
Wed 03:42:00 PM 23.9688 -124.9426 24° Northeast 49 56 5,500  Level FlightAware Transoceanic
Wed 03:43:00 PM 24.0997 -124.8787 24° Northeast 49 56 5,500  Level FlightAware Transoceanic
Wed 03:44:00 PM 24.2305 -124.8147 24° Northeast 49 56 5,500  Level FlightAware Transoceanic
Wed 03:45:00 PM 24.3613 -124.7506 24° Northeast 49 56 5,500  Level FlightAware Transoceanic
Wed 03:46:00 PM 24.4921 -124.6863 24° Northeast 49 56 5,500  Level FlightAware Transoceanic
Wed 03:47:00 PM 24.6229 -124.6219 24° Northeast 49 56 5,500  Level FlightAware Transoceanic
Wed 03:48:00 PM 24.7536 -124.5574 24° Northeast 49 56 5,500  Level FlightAware Transoceanic
Wed 03:49:00 PM 24.8843 -124.4927 24° Northeast 49 56 5,500  Level FlightAware Transoceanic
Wed 03:50:00 PM 25.0150 -124.4279 24° Northeast 49 56 5,500  Level FlightAware Transoceanic
Wed 03:51:00 PM 25.1457 -124.3630 24° Northeast 49 56 5,500  Level FlightAware Transoceanic
Wed 03:52:00 PM 25.2763 -124.2979 24° Northeast 49 56 5,500  Level FlightAware Transoceanic
Wed 03:53:00 PM 25.4069 -124.2327 24° Northeast 49 56 5,500  Level FlightAware Transoceanic
Wed 03:54:00 PM 25.5375 -124.1673 24° Northeast 49 56 5,500  Level FlightAware Transoceanic
Wed 03:55:00 PM 25.6680 -124.1018 24° Northeast 49 56 5,500  Level FlightAware Transoceanic
Wed 03:56:00 PM 25.7985 -124.0362 24° Northeast 49 56 5,500  Level FlightAware Transoceanic
Wed 03:57:00 PM 25.9290 -123.9704 24° Northeast 49 56 5,500  Level FlightAware Transoceanic
Wed 03:58:00 PM 26.0594 -123.9044 24° Northeast 49 56 5,500  Level FlightAware Transoceanic
Wed 03:59:00 PM 26.1898 -123.8383 24° Northeast 49 56 5,500  Level FlightAware Transoceanic
Wed 04:00:00 PM 26.3202 -123.7721 25° Northeast 49 56 5,500  Level FlightAware Transoceanic
Wed 04:01:00 PM 26.4506 -123.7057 25° Northeast 49 56 5,500  Level FlightAware Transoceanic
Wed 04:02:00 PM 26.5809 -123.6392 25° Northeast 49 56 5,500  Level FlightAware Transoceanic
Wed 04:03:00 PM 26.7112 -123.5725 25° Northeast 49 56 5,500  Level FlightAware Transoceanic
Wed 04:03:07 PM 25.0667 -121.8833 227° Southwest 399 459 5,500  Level Oakland Oceanic (ODAPS)
Wed 04:04:00 PM 26.8415 -123.5057 25° Northeast 49 56 5,500  Level FlightAware Transoceanic
Wed 04:05:00 PM 26.9717 -123.4387 25° Northeast 49 56 5,500  Level FlightAware Transoceanic
Wed 04:06:00 PM 27.1019 -123.3715 25° Northeast 49 56 5,500  Level FlightAware Transoceanic
Wed 04:07:00 PM 27.2321 -123.3042 25° Northeast 49 56 5,500  Level FlightAware Transoceanic
Wed 04:08:00 PM 27.3622 -123.2368 25° Northeast 49 56 5,500  Level FlightAware Transoceanic
Wed 04:09:00 PM 24.3730 -122.6852 226° Southwest 399 459 5,500  Level FlightAware Transoceanic
Wed 04:10:00 PM 24.2956 -122.7738 226° Southwest 399 459 5,500  Level FlightAware Transoceanic
Wed 04:11:00 PM 24.2182 -122.8622 226° Southwest 399 459 5,500  Level FlightAware Transoceanic
Wed 04:12:00 PM 24.1408 -122.9506 226° Southwest 399 459 5,500  Level FlightAware Transoceanic
Wed 04:13:00 PM 24.0633 -123.0388 226° Southwest 399 459 5,500  Level FlightAware Transoceanic
Wed 04:14:00 PM 23.9858 -123.1269 226° Southwest 399 459 5,500  Level FlightAware Transoceanic
Wed 04:15:00 PM 23.9082 -123.2150 226° Southwest 399 459 5,500  Level FlightAware Transoceanic
Wed 04:16:00 PM 23.8305 -123.3029 226° Southwest 399 459 5,500  Level FlightAware Transoceanic
Wed 04:17:00 PM 23.7528 -123.3907 226° Southwest 399 459 5,500  Level FlightAware Transoceanic
Wed 04:18:00 PM 23.6751 -123.4784 226° Southwest 399 459 5,500  Level FlightAware Transoceanic
Wed 04:19:00 PM 23.5973 -123.5660 226° Southwest 399 459 5,500  Level FlightAware Transoceanic
Wed 04:20:00 PM 23.5195 -123.6535 226° Southwest 399 459 5,500  Level FlightAware Transoceanic
Wed 04:21:00 PM 23.4416 -123.7409 226° Southwest 399 459 5,500  Level FlightAware Transoceanic
Wed 04:22:00 PM 23.3636 -123.8281 226° Southwest 399 459 5,500  Level FlightAware Transoceanic
Wed 04:23:00 PM 23.2856 -123.9153 226° Southwest 399 459 5,500  Level FlightAware Transoceanic
Wed 04:24:00 PM 23.2076 -124.0024 226° Southwest 399 459 5,500  Level FlightAware Transoceanic
Wed 04:25:00 PM 23.1295 -124.0894 226° Southwest 399 459 5,500  Level FlightAware Transoceanic
Wed 04:26:00 PM 23.0514 -124.1763 226° Southwest 399 459 5,500  Level FlightAware Transoceanic
Wed 04:27:00 PM 22.9732 -124.2631 226° Southwest 399 459 5,500  Level FlightAware Transoceanic
Wed 04:28:00 PM 22.8950 -124.3497 226° Southwest 399 459 5,500  Level FlightAware Transoceanic
Wed 04:29:00 PM 22.8167 -124.4363 226° Southwest 399 459 5,500  Level FlightAware Transoceanic
Wed 04:30:00 PM 22.7384 -124.5228 225° Southwest 399 459 5,500  Level FlightAware Transoceanic
Wed 04:31:00 PM 22.6600 -124.6092 225° Southwest 399 459 5,500  Level FlightAware Transoceanic
Wed 04:32:00 PM 22.5816 -124.6955 225° Southwest 399 459 5,500  Level FlightAware Transoceanic
Wed 04:33:00 PM 22.5032 -124.7816 225° Southwest 399 459 5,500  Level FlightAware Transoceanic
Wed 04:34:00 PM 22.4247 -124.8677 225° Southwest 399 459 5,500  Level FlightAware Transoceanic
Wed 04:35:00 PM 22.3461 -124.9537 225° Southwest 399 459 5,500  Level FlightAware Transoceanic
Wed 04:36:00 PM 22.2675 -125.0396 225° Southwest 399 459 5,500  Level FlightAware Transoceanic
Wed 04:37:00 PM 22.1889 -125.1254 225° Southwest 399 459 5,500  Level FlightAware Transoceanic
Wed 04:38:00 PM 22.1102 -125.2111 225° Southwest 399 459 5,500  Level FlightAware Transoceanic
Wed 04:39:00 PM 22.0315 -125.2967 225° Southwest 399 459 5,500  Level FlightAware Transoceanic
Wed 04:40:00 PM 21.9527 -125.3822 225° Southwest 399 459 5,500  Level FlightAware Transoceanic
Wed 04:41:00 PM 21.8739 -125.4676 225° Southwest 399 459 5,500  Level FlightAware Transoceanic
Wed 04:42:00 PM 21.7950 -125.5530 225° Southwest 399 459 5,500  Level FlightAware Transoceanic
Wed 04:43:00 PM 21.7161 -125.6382 225° Southwest 399 459 5,500  Level FlightAware Transoceanic
Wed 04:44:00 PM 21.6372 -125.7233 225° Southwest 399 459 5,500  Level FlightAware Transoceanic
Wed 04:45:00 PM 21.5582 -125.8084 225° Southwest 399 459 5,500  Level FlightAware Transoceanic
Wed 04:46:00 PM 21.4791 -125.8933 225° Southwest 399 459 5,500  Level FlightAware Transoceanic
Wed 04:47:00 PM 21.4001 -125.9782 225° Southwest 399 459 5,500  Level FlightAware Transoceanic
Wed 04:48:00 PM 21.3209 -126.0629 225° Southwest 399 459 5,500  Level FlightAware Transoceanic
Wed 04:49:00 PM 21.2418 -126.1476 225° Southwest 399 459 5,500  Level FlightAware Transoceanic
Wed 04:50:00 PM 21.1626 -126.2322 225° Southwest 399 459 5,500  Level FlightAware Transoceanic
Wed 04:51:00 PM 21.0833 -126.3167 23° Northeast 399 459 5,500  Level FlightAware Transoceanic
Wed 04:52:00 PM 21.2147 -126.2554 24° Northeast 399 459 5,500  Level FlightAware Transoceanic
Wed 04:53:00 PM 21.3461 -126.1941 24° Northeast 399 459 5,500  Level FlightAware Transoceanic
Wed 04:54:00 PM 21.4775 -126.1326 24° Northeast 399 459 5,500  Level FlightAware Transoceanic
Wed 04:55:00 PM 21.6088 -126.0710 24° Northeast 399 459 5,500  Level FlightAware Transoceanic
Wed 04:56:00 PM 21.7401 -126.0093 24° Northeast 399 459 5,500  Level FlightAware Transoceanic
Wed 04:57:00 PM 21.8714 -125.9475 24° Northeast 399 459 5,500  Level FlightAware Transoceanic
Wed 04:58:00 PM 22.0027 -125.8856 24° Northeast 399 459 5,500  Level FlightAware Transoceanic
Wed 04:59:00 PM 22.1339 -125.8236 24° Northeast 399 459 5,500  Level FlightAware Transoceanic
Wed 05:00:00 PM 22.2652 -125.7615 24° Northeast 399 459 5,500  Level FlightAware Transoceanic
Wed 05:01:00 PM 22.3964 -125.6992 24° Northeast 399 459 5,500  Level FlightAware Transoceanic
Wed 05:02:00 PM 22.5275 -125.6368 24° Northeast 399 459 5,500  Level FlightAware Transoceanic
Wed 05:03:00 PM 22.6587 -125.5743 24° Northeast 399 459 5,500  Level FlightAware Transoceanic
Wed 05:04:00 PM 22.7898 -125.5117 24° Northeast 399 459 5,500  Level FlightAware Transoceanic
Wed 05:05:00 PM 22.9209 -125.4490 24° Northeast 399 459 5,500  Level FlightAware Transoceanic
Wed 05:06:00 PM 23.0520 -125.3861 24° Northeast 399 459 5,500  Level FlightAware Transoceanic
Wed 05:07:00 PM 23.1830 -125.3231 24° Northeast 399 459 5,500  Level FlightAware Transoceanic
Wed 05:08:00 PM 23.3141 -125.2600 24° Northeast 399 459 5,500  Level FlightAware Transoceanic
Wed 05:09:00 PM 23.4450 -125.1968 24° Northeast 399 459 5,500  Level FlightAware Transoceanic
Wed 05:10:00 PM 23.5760 -125.1334 24° Northeast 399 459 5,500  Level FlightAware Transoceanic
Wed 05:11:00 PM 23.7070 -125.0699 24° Northeast 399 459 5,500  Level FlightAware Transoceanic
Wed 05:12:00 PM 23.8379 -125.0063 24° Northeast 399 459 5,500  Level FlightAware Transoceanic
Wed 05:13:00 PM 23.9688 -124.9426 24° Northeast 399 459 5,500  Level FlightAware Transoceanic
Wed 05:14:00 PM 24.0997 -124.8787 24° Northeast 399 459 5,500  Level FlightAware Transoceanic
Wed 05:15:00 PM 24.2305 -124.8147 24° Northeast 399 459 5,500  Level FlightAware Transoceanic
Wed 05:16:00 PM 24.3613 -124.7506 24° Northeast 399 459 5,500  Level FlightAware Transoceanic
Wed 05:17:00 PM 24.4921 -124.6863 24° Northeast 399 459 5,500  Level FlightAware Transoceanic
Wed 05:18:00 PM 24.6229 -124.6219 24° Northeast 399 459 5,500  Level FlightAware Transoceanic
Wed 05:19:00 PM 24.7536 -124.5574 24° Northeast 399 459 5,500  Level FlightAware Transoceanic
Wed 05:20:00 PM 24.8843 -124.4927 24° Northeast 399 459 5,500  Level FlightAware Transoceanic
Wed 05:21:00 PM 25.0150 -124.4279 24° Northeast 399 459 5,500  Level FlightAware Transoceanic
Wed 05:22:00 PM 25.1457 -124.3630 24° Northeast 399 459 5,500  Level FlightAware Transoceanic
Wed 05:23:00 PM 25.2763 -124.2979 24° Northeast 399 459 5,500  Level FlightAware Transoceanic
Wed 05:24:00 PM 25.4069 -124.2327 24° Northeast 399 459 5,500  Level FlightAware Transoceanic
Wed 05:25:00 PM 25.5375 -124.1673 24° Northeast 399 459 5,500  Level FlightAware Transoceanic
Wed 05:26:00 PM 25.6680 -124.1018 24° Northeast 399 459 5,500  Level FlightAware Transoceanic
Wed 05:27:00 PM 25.7985 -124.0362 24° Northeast 399 459 5,500  Level FlightAware Transoceanic
Wed 05:28:00 PM 25.9290 -123.9704 24° Northeast 399 459 5,500  Level FlightAware Transoceanic
Wed 05:29:00 PM 26.0594 -123.9044 24° Northeast 399 459 5,500  Level FlightAware Transoceanic
Wed 05:30:00 PM 26.1898 -123.8383 24° Northeast 399 459 5,500  Level FlightAware Transoceanic
Wed 05:31:00 PM 26.3202 -123.7721 25° Northeast 399 459 5,500  Level FlightAware Transoceanic
Wed 05:32:00 PM 26.4506 -123.7057 25° Northeast 399 459 5,500  Level FlightAware Transoceanic
Wed 05:33:00 PM 26.5809 -123.6392 25° Northeast 399 459 5,500  Level FlightAware Transoceanic
Wed 05:34:00 PM 26.7112 -123.5725 25° Northeast 399 459 5,500  Level FlightAware Transoceanic
Wed 05:35:00 PM 26.8415 -123.5057 25° Northeast 399 459 5,500  Level FlightAware Transoceanic
Wed 05:36:00 PM 26.9717 -123.4387 25° Northeast 399 459 5,500  Level FlightAware Transoceanic
Wed 05:37:00 PM 27.1019 -123.3715 25° Northeast 399 459 5,500  Level FlightAware Transoceanic
Wed 05:37:06 PM 25.0667 -121.8833 227° Southwest 336 387 5,500  Level Oakland Oceanic (ODAPS)
Wed 05:38:00 PM 27.2321 -123.3042 25° Northeast 399 459 5,500  Level FlightAware Transoceanic
Wed 05:39:00 PM 27.3622 -123.2368 25° Northeast 399 459 5,500  Level FlightAware Transoceanic
Wed 05:40:00 PM 27.4923 -123.1691 25° Northeast 399 459 5,500  Level FlightAware Transoceanic
Wed 05:41:00 PM 27.6224 -123.1014 25° Northeast 399 459 5,500  Level FlightAware Transoceanic
Wed 05:42:00 PM 27.7524 -123.0334 25° Northeast 399 459 5,500  Level FlightAware Transoceanic
Wed 05:43:00 PM 24.6921 -124.5878 24° Northeast 336 387 5,500  Level FlightAware Transoceanic
Wed 05:44:00 PM 24.7778 -124.5455 24° Northeast 336 387 5,500  Level FlightAware Transoceanic
Wed 05:45:00 PM 24.8635 -124.5031 24° Northeast 336 387 5,500  Level FlightAware Transoceanic
Wed 05:46:00 PM 24.9491 -124.4606 24° Northeast 336 387 5,500  Level FlightAware Transoceanic
Wed 05:47:00 PM 25.0348 -124.4181 24° Northeast 336 387 5,500  Level FlightAware Transoceanic
Wed 05:48:00 PM 25.1204 -124.3755 24° Northeast 336 387 5,500  Level FlightAware Transoceanic
Wed 05:49:00 PM 25.2060 -124.3329 24° Northeast 336 387 5,500  Level FlightAware Transoceanic
Wed 05:50:00 PM 25.2917 -124.2902 24° Northeast 336 387 5,500  Level FlightAware Transoceanic
Wed 05:51:00 PM 25.3773 -124.2475 24° Northeast 336 387 5,500  Level FlightAware Transoceanic
Wed 05:52:00 PM 25.4628 -124.2047 24° Northeast 336 387 5,500  Level FlightAware Transoceanic
Wed 05:53:00 PM 25.5484 -124.1618 24° Northeast 336 387 5,500  Level FlightAware Transoceanic
Wed 05:54:00 PM 25.6340 -124.1189 24° Northeast 336 387 5,500  Level FlightAware Transoceanic
Wed 05:55:00 PM 25.7195 -124.0759 24° Northeast 336 387 5,500  Level FlightAware Transoceanic
Wed 05:56:00 PM 25.8051 -124.0329 24° Northeast 336 387 5,500  Level FlightAware Transoceanic
Wed 05:57:00 PM 25.8906 -123.9897 24° Northeast 336 387 5,500  Level FlightAware Transoceanic
Wed 05:58:00 PM 25.9761 -123.9466 24° Northeast 336 387 5,500  Level FlightAware Transoceanic
Wed 05:59:00 PM 26.0616 -123.9033 24° Northeast 336 387 5,500  Level FlightAware Transoceanic
Wed 06:00:00 PM 26.1471 -123.8600 24° Northeast 336 387 5,500  Level FlightAware Transoceanic
Wed 06:01:00 PM 26.2326 -123.8167 24° Northeast 336 387 5,500  Level FlightAware Transoceanic
Wed 06:02:00 PM 26.3180 -123.7732 25° Northeast 336 387 5,500  Level FlightAware Transoceanic
Wed 06:03:00 PM 26.4035 -123.7297 25° Northeast 336 387 5,500  Level FlightAware Transoceanic
Wed 06:04:00 PM 26.4889 -123.6862 25° Northeast 336 387 5,500  Level FlightAware Transoceanic
Wed 06:05:00 PM 26.5743 -123.6426 25° Northeast 336 387 5,500  Level FlightAware Transoceanic
Wed 06:06:00 PM 26.6597 -123.5989 25° Northeast 336 387 5,500  Level FlightAware Transoceanic
Wed 06:07:00 PM 26.7451 -123.5551 25° Northeast 336 387 5,500  Level FlightAware Transoceanic
Wed 06:08:00 PM 26.8305 -123.5113 25° Northeast 336 387 5,500  Level FlightAware Transoceanic
Wed 06:09:00 PM 26.9159 -123.4674 25° Northeast 336 387 5,500  Level FlightAware Transoceanic
Wed 06:10:00 PM 27.0012 -123.4235 25° Northeast 336 387 5,500  Level FlightAware Transoceanic
Wed 06:11:00 PM 27.0866 -123.3794 25° Northeast 336 387 5,500  Level FlightAware Transoceanic
Wed 06:12:00 PM 27.1719 -123.3354 25° Northeast 336 387 5,500  Level FlightAware Transoceanic
Wed 06:13:00 PM 27.2572 -123.2912 25° Northeast 336 387 5,500  Level FlightAware Transoceanic
Wed 06:14:00 PM 27.3425 -123.2470 25° Northeast 336 387 5,500  Level FlightAware Transoceanic
Wed 06:15:00 PM 27.4278 -123.2027 25° Northeast 336 387 5,500  Level FlightAware Transoceanic
Wed 06:16:00 PM 27.5131 -123.1583 25° Northeast 336 387 5,500  Level FlightAware Transoceanic
Wed 06:17:00 PM 27.5983 -123.1139 25° Northeast 336 387 5,500  Level FlightAware Transoceanic
Wed 06:18:00 PM 27.6836 -123.0694 25° Northeast 336 387 5,500  Level FlightAware Transoceanic
Wed 06:19:00 PM 27.7688 -123.0248 25° Northeast 336 387 5,500  Level FlightAware Transoceanic
Wed 06:20:00 PM 27.8540 -122.9802 25° Northeast 336 387 5,500  Level FlightAware Transoceanic
Wed 06:21:00 PM 27.9392 -122.9355 25° Northeast 336 387 5,500  Level FlightAware Transoceanic
Wed 06:22:00 PM 28.0244 -122.8907 25° Northeast 336 387 5,500  Level FlightAware Transoceanic
Wed 06:23:00 PM 28.1096 -122.8459 25° Northeast 336 387 5,500  Level FlightAware Transoceanic
Wed 06:24:00 PM 28.1947 -122.8010 25° Northeast 336 387 5,500  Level FlightAware Transoceanic
Wed 06:25:00 PM 28.2799 -122.7560 25° Northeast 336 387 5,500  Level FlightAware Transoceanic
Wed 06:26:00 PM 28.3650 -122.7109 25° Northeast 336 387 5,500  Level FlightAware Transoceanic
Wed 06:27:00 PM 28.4501 -122.6658 25° Northeast 336 387 5,500  Level FlightAware Transoceanic
Wed 06:28:00 PM 28.5352 -122.6206 25° Northeast 336 387 5,500  Level FlightAware Transoceanic
Wed 06:29:00 PM 28.6203 -122.5753 25° Northeast 336 387 5,500  Level FlightAware Transoceanic
Wed 06:30:00 PM 28.7054 -122.5299 25° Northeast 336 387 5,500  Level FlightAware Transoceanic
Wed 06:31:00 PM 28.7904 -122.4845 25° Northeast 336 387 5,500  Level FlightAware Transoceanic
Wed 06:32:00 PM 28.8755 -122.4390 25° Northeast 336 387 5,500  Level FlightAware Transoceanic
Wed 06:33:00 PM 28.9605 -122.3934 25° Northeast 336 387 5,500  Level FlightAware Transoceanic
Wed 06:34:00 PM 29.0455 -122.3478 25° Northeast 336 387 5,500  Level FlightAware Transoceanic
Wed 06:35:00 PM 29.1305 -122.3021 25° Northeast 336 387 5,500  Level FlightAware Transoceanic
Wed 06:36:00 PM 29.2155 -122.2563 25° Northeast 336 387 5,500  Level FlightAware Transoceanic
Wed 06:37:00 PM 29.3004 -122.2104 25° Northeast 336 387 5,500  Level FlightAware Transoceanic
Wed 06:38:00 PM 29.3854 -122.1644 25° Northeast 336 387 5,500  Level FlightAware Transoceanic
Wed 06:39:00 PM 29.4703 -122.1184 25° Northeast 336 387 5,500  Level FlightAware Transoceanic
Wed 06:40:00 PM 29.5552 -122.0723 25° Northeast 336 387 5,500  Level FlightAware Transoceanic
Wed 06:41:00 PM 29.6401 -122.0261 25° Northeast 336 387 5,500  Level FlightAware Transoceanic
Wed 06:42:00 PM 29.7250 -121.9799 25° Northeast 336 387 5,500  Level FlightAware Transoceanic
Wed 06:43:00 PM 29.8099 -121.9335 25° Northeast 336 387 5,500  Level FlightAware Transoceanic
Wed 06:44:00 PM 29.8947 -121.8871 25° Northeast 336 387 5,500  Level FlightAware Transoceanic
Wed 06:45:00 PM 29.9795 -121.8406 25° Northeast 336 387 5,500  Level FlightAware Transoceanic
Wed 06:46:00 PM 30.0644 -121.7940 25° Northeast 336 387 5,500  Level FlightAware Transoceanic
Wed 06:47:00 PM 30.1492 -121.7474 25° Northeast 336 387 5,500  Level FlightAware Transoceanic
Wed 06:48:00 PM 30.2339 -121.7006 25° Northeast 336 387 5,500  Level FlightAware Transoceanic
Wed 06:49:00 PM 30.3187 -121.6538 26° Northeast 336 387 5,500  Level FlightAware Transoceanic
Wed 06:50:00 PM 30.4034 -121.6069 26° Northeast 336 387 5,500  Level FlightAware Transoceanic
Wed 06:51:00 PM 30.4882 -121.5599 26° Northeast 336 387 5,500  Level FlightAware Transoceanic
Wed 06:52:00 PM 30.5729 -121.5128 26° Northeast 336 387 5,500  Level FlightAware Transoceanic
Wed 06:53:00 PM 30.6576 -121.4657 26° Northeast 336 387 5,500  Level FlightAware Transoceanic
Wed 06:54:00 PM 30.7423 -121.4185 26° Northeast 336 387 5,500  Level FlightAware Transoceanic
Wed 06:55:00 PM 30.8269 -121.3711 26° Northeast 336 387 5,500  Level FlightAware Transoceanic
Wed 06:56:00 PM 30.9116 -121.3238 26° Northeast 336 387 5,500 22,969 Level FlightAware Transoceanic
Wed 06:56:04 PM 28.8833 -122.1167 13° North 547 629 30,000  Climbing Oakland Oceanic (ODAPS)
Wed 06:57:00 PM 30.9962 -121.2763 26° Northeast 336 387 5,500 -12,672 Descending FlightAware Transoceanic
Wed 06:58:00 PM 31.0808 -121.2287 26° Northeast 336 387 5,500  Level FlightAware Transoceanic
Wed 06:59:00 PM 31.1654 -121.1811 26° Northeast 336 387 5,500 6,125 Level FlightAware Transoceanic
Wed 07:00:00 PM 31.2507 -121.0720 48° Northeast  Level Estimated
Wed 07:01:00 PM 31.3358 -120.9628 48° Northeast  Level Estimated
Wed 07:02:00 PM 31.2539 -121.4816 13° North 547 629 30,000  Level FlightAware Transoceanic
Wed 07:03:00 PM 31.4020 -121.4409 13° North 547 629 30,000  Level FlightAware Transoceanic
Wed 07:04:00 PM 31.5500 -121.4000 67° East 547 629 30,000  Level FlightAware Transoceanic
Wed 07:05:00 PM 31.6078 -121.2387 67° East 547 629 30,000  Level FlightAware Transoceanic
Wed 07:06:00 PM 31.6653 -121.0772 67° East 547 629 30,000  Level FlightAware Transoceanic
Wed 07:07:00 PM 31.7227 -120.9155 67° East 547 629 30,000  Level FlightAware Transoceanic
Wed 07:08:00 PM 31.7798 -120.7536 68° East 547 629 30,000  Level FlightAware Transoceanic
Wed 07:09:00 PM 31.8367 -120.5915 68° East 547 629 30,000  Level FlightAware Transoceanic
Wed 07:10:00 PM 31.8935 -120.4292 68° East 547 629 30,000 -122 Level FlightAware Transoceanic
Wed 07:11:00 PM 31.9286 -120.2862 74° East  Level FlightAware Approximate
Wed 07:12:00 PM 31.9635 -120.1431 74° East  Level FlightAware Approximate
Wed 07:13:00 PM 32.0096 -120.1697 47° Northeast  Level FlightAware Approximate
Wed 07:14:00 PM 32.0955 -120.0603 47° Northeast  Level FlightAware Approximate
Wed 07:15:00 PM 32.1812 -119.9507 47° Northeast  Level FlightAware Approximate
Wed 07:16:00 PM 32.2668 -119.8409 47° Northeast  Level FlightAware Approximate
Wed 07:17:00 PM 32.3524 -119.7308 47° Northeast  Level FlightAware Approximate
Wed 07:17:12 PM 32.6850 -119.4180 47° Northeast 543 625 29,000  Level FlightAware ADS-B
Wed 07:17:52 PM 32.7490 -119.3260 50° Northeast 544 626 29,000  Level FlightAware ADS-B
Wed 07:18:32 PM 32.8110 -119.2370 50° Northeast 543 625 29,000  Level FlightAware ADS-B
Wed 07:19:12 PM 32.8760 -119.1430 51° Northeast 543 625 29,000  Level FlightAware ADS-B
Wed 07:19:57 PM 32.9530 -119.0330 50° Northeast 542 624 29,000  Level FlightAware ADS-B
Wed 07:20:42 PM 33.0220 -118.9340 50° Northeast 541 623 29,000  Level FlightAware ADS-B
Wed 07:21:22 PM 33.0900 -118.8350 51° Northeast 544 626 29,000  Level FlightAware ADS-B
Wed 07:22:02 PM 33.1540 -118.7430 50° Northeast 546 628 29,000  Level FlightAware ADS-B
Wed 07:22:47 PM 33.2270 -118.6370 51° Northeast 547 629 29,000  Level FlightAware ADS-B
Wed 07:23:27 PM 33.2940 -118.5380 51° Northeast 550 633 29,000  Level FlightAware ADS-B
Wed 07:24:12 PM 33.3540 -118.4270 57° Northeast 565 650 29,000 -300 Level FlightAware ADS-B
Wed 07:25:07 PM 33.3530 -118.2500 90° East 581 669 28,500 -758 Descending FlightAware ADS-B
Wed 07:25:47 PM 33.3360 -118.1230 99° East 570 656 27,800 -1,765 Descending FlightAware ADS-B
Wed 07:26:32 PM 33.3270 -117.9880 95° East 549 632 26,000 -2,400 Descending FlightAware ADS-B
Wed 07:27:12 PM 33.3250 -117.8670 91° East 535 616 24,400 -1,412 Descending FlightAware ADS-B
Wed 07:27:57 PM 33.3230 -117.7430 91° East 494 568 24,000 -1,553 Descending FlightAware ADS-B
Wed 07:28:37 PM 33.3200 -117.6360 92° East 476 548 22,200 -4,350 Descending FlightAware ADS-B
Wed 07:29:17 PM 33.3160 -117.5330 93° East 466 536 18,200 -6,000 Descending FlightAware ADS-B

Login

Don't have an account? Register now (free) for customized features, flight alerts, and more!